sensor_id;sensor_type;location;lat;lon;timestamp;P1;durP1;ratioP1;P2;durP2;ratioP2
51556;SDS011;38766;53.194;5.532;2023-07-20T00:01:35;2.75;;;1.63;;
51556;SDS011;38766;53.194;5.532;2023-07-20T00:04:03;2.38;;;1.92;;
51556;SDS011;38766;53.194;5.532;2023-07-20T00:06:28;3.50;;;1.92;;
51556;SDS011;38766;53.194;5.532;2023-07-20T00:08:54;2.45;;;1.90;;
51556;SDS011;38766;53.194;5.532;2023-07-20T00:11:21;4.38;;;1.88;;
51556;SDS011;38766;53.194;5.532;2023-07-20T00:13:50;4.45;;;2.05;;
51556;SDS011;38766;53.194;5.532;2023-07-20T00:16:15;4.88;;;2.10;;
51556;SDS011;38766;53.194;5.532;2023-07-20T00:18:41;5.70;;;2.28;;
51556;SDS011;38766;53.194;5.532;2023-07-20T00:21:07;2.90;;;2.10;;
51556;SDS011;38766;53.194;5.532;2023-07-20T00:23:32;2.97;;;2.08;;
51556;SDS011;38766;53.194;5.532;2023-07-20T00:25:58;3.22;;;2.22;;
51556;SDS011;38766;53.194;5.532;2023-07-20T00:28:23;3.53;;;2.20;;
51556;SDS011;38766;53.194;5.532;2023-07-20T00:30:49;2.33;;;2.08;;
51556;SDS011;38766;53.194;5.532;2023-07-20T00:33:16;3.58;;;2.30;;
51556;SDS011;38766;53.194;5.532;2023-07-20T00:35:43;3.85;;;2.03;;
51556;SDS011;38766;53.194;5.532;2023-07-20T00:38:08;2.30;;;2.10;;
51556;SDS011;38766;53.194;5.532;2023-07-20T00:40:35;3.13;;;1.98;;
51556;SDS011;38766;53.194;5.532;2023-07-20T00:43:02;4.85;;;2.17;;
51556;SDS011;38766;53.194;5.532;2023-07-20T00:45:28;3.72;;;1.90;;
51556;SDS011;38766;53.194;5.532;2023-07-20T00:47:55;3.60;;;1.92;;
51556;SDS011;38766;53.194;5.532;2023-07-20T00:50:22;2.88;;;2.20;;
51556;SDS011;38766;53.194;5.532;2023-07-20T00:52:54;2.78;;;1.83;;
51556;SDS011;38766;53.194;5.532;2023-07-20T00:55:20;6.68;;;1.98;;
51556;SDS011;38766;53.194;5.532;2023-07-20T00:57:47;3.78;;;1.77;;
51556;SDS011;38766;53.194;5.532;2023-07-20T01:00:13;3.22;;;1.55;;
51556;SDS011;38766;53.194;5.532;2023-07-20T01:02:40;3.63;;;2.10;;
51556;SDS011;38766;53.194;5.532;2023-07-20T01:05:05;1.50;;;1.40;;
51556;SDS011;38766;53.194;5.532;2023-07-20T01:07:34;2.00;;;1.55;;
51556;SDS011;38766;53.194;5.532;2023-07-20T01:12:51;3.38;;;1.50;;
51556;SDS011;38766;53.194;5.532;2023-07-20T01:15:18;1.60;;;1.50;;
51556;SDS011;38766;53.194;5.532;2023-07-20T01:17:44;2.55;;;1.40;;
51556;SDS011;38766;53.194;5.532;2023-07-20T01:20:10;2.80;;;2.00;;
51556;SDS011;38766;53.194;5.532;2023-07-20T01:22:55;3.38;;;1.55;;
51556;SDS011;38766;53.194;5.532;2023-07-20T01:30:59;3.75;;;1.50;;
51556;SDS011;38766;53.194;5.532;2023-07-20T01:33:40;4.10;;;1.67;;
51556;SDS011;38766;53.194;5.532;2023-07-20T01:36:11;1.48;;;1.38;;
51556;SDS011;38766;53.194;5.532;2023-07-20T01:38:37;4.00;;;1.52;;
51556;SDS011;38766;53.194;5.532;2023-07-20T01:41:03;5.68;;;1.58;;
51556;SDS011;38766;53.194;5.532;2023-07-20T01:43:31;2.97;;;1.77;;
51556;SDS011;38766;53.194;5.532;2023-07-20T01:45:57;4.10;;;1.50;;
51556;SDS011;38766;53.194;5.532;2023-07-20T01:48:22;1.55;;;1.45;;
51556;SDS011;38766;53.194;5.532;2023-07-20T01:50:48;2.47;;;1.38;;
51556;SDS011;38766;53.194;5.532;2023-07-20T01:53:14;2.92;;;1.30;;
51556;SDS011;38766;53.194;5.532;2023-07-20T01:55:40;2.45;;;1.30;;
51556;SDS011;38766;53.194;5.532;2023-07-20T01:58:05;1.45;;;1.33;;
51556;SDS011;38766;53.194;5.532;2023-07-20T02:00:36;1.55;;;1.40;;
51556;SDS011;38766;53.194;5.532;2023-07-20T02:03:02;3.60;;;1.55;;
51556;SDS011;38766;53.194;5.532;2023-07-20T02:05:28;3.40;;;1.42;;
51556;SDS011;38766;53.194;5.532;2023-07-20T02:07:53;3.08;;;1.50;;
51556;SDS011;38766;53.194;5.532;2023-07-20T02:10:19;2.35;;;1.40;;
51556;SDS011;38766;53.194;5.532;2023-07-20T02:12:45;3.80;;;1.75;;
51556;SDS011;38766;53.194;5.532;2023-07-20T02:15:11;2.15;;;1.55;;
51556;SDS011;38766;53.194;5.532;2023-07-20T02:17:38;6.60;;;1.55;;
51556;SDS011;38766;53.194;5.532;2023-07-20T02:20:06;3.22;;;1.88;;
51556;SDS011;38766;53.194;5.532;2023-07-20T02:22:35;2.10;;;1.23;;
51556;SDS011;38766;53.194;5.532;2023-07-20T02:25:01;2.63;;;1.85;;
51556;SDS011;38766;53.194;5.532;2023-07-20T02:27:27;7.00;;;1.60;;
51556;SDS011;38766;53.194;5.532;2023-07-20T02:29:52;3.53;;;1.50;;
51556;SDS011;38766;53.194;5.532;2023-07-20T02:32:18;2.10;;;1.58;;
51556;SDS011;38766;53.194;5.532;2023-07-20T02:34:44;3.45;;;1.40;;
51556;SDS011;38766;53.194;5.532;2023-07-20T02:37:09;1.50;;;1.40;;
51556;SDS011;38766;53.194;5.532;2023-07-20T02:39:37;3.30;;;1.48;;
51556;SDS011;38766;53.194;5.532;2023-07-20T02:42:04;5.10;;;1.63;;
51556;SDS011;38766;53.194;5.532;2023-07-20T02:44:29;3.58;;;1.70;;
51556;SDS011;38766;53.194;5.532;2023-07-20T02:46:55;2.67;;;1.23;;
51556;SDS011;38766;53.194;5.532;2023-07-20T02:49:21;3.50;;;1.73;;
51556;SDS011;38766;53.194;5.532;2023-07-20T02:51:46;5.22;;;1.60;;
51556;SDS011;38766;53.194;5.532;2023-07-20T02:54:12;3.88;;;1.70;;
51556;SDS011;38766;53.194;5.532;2023-07-20T02:56:38;6.07;;;1.50;;
51556;SDS011;38766;53.194;5.532;2023-07-20T02:59:03;3.63;;;1.55;;
51556;SDS011;38766;53.194;5.532;2023-07-20T03:01:32;3.03;;;1.35;;
51556;SDS011;38766;53.194;5.532;2023-07-20T03:03:58;3.35;;;1.50;;
51556;SDS011;38766;53.194;5.532;2023-07-20T03:06:23;4.03;;;1.65;;
51556;SDS011;38766;53.194;5.532;2023-07-20T03:08:49;1.90;;;1.10;;
51556;SDS011;38766;53.194;5.532;2023-07-20T03:11:17;2.38;;;1.35;;
51556;SDS011;38766;53.194;5.532;2023-07-20T03:13:44;1.30;;;1.23;;
51556;SDS011;38766;53.194;5.532;2023-07-20T03:16:10;3.03;;;1.38;;
51556;SDS011;38766;53.194;5.532;2023-07-20T03:18:37;4.82;;;1.25;;
51556;SDS011;38766;53.194;5.532;2023-07-20T03:21:04;1.50;;;1.40;;
51556;SDS011;38766;53.194;5.532;2023-07-20T03:23:30;1.98;;;1.52;;
51556;SDS011;38766;53.194;5.532;2023-07-20T03:25:55;3.83;;;1.60;;
51556;SDS011;38766;53.194;5.532;2023-07-20T03:28:21;1.35;;;1.25;;
51556;SDS011;38766;53.194;5.532;2023-07-20T03:30:52;2.05;;;1.50;;
51556;SDS011;38766;53.194;5.532;2023-07-20T03:33:19;3.45;;;1.50;;
51556;SDS011;38766;53.194;5.532;2023-07-20T03:35:45;1.50;;;1.40;;
51556;SDS011;38766;53.194;5.532;2023-07-20T03:38:10;1.83;;;1.50;;
51556;SDS011;38766;53.194;5.532;2023-07-20T03:40:36;1.77;;;1.40;;
51556;SDS011;38766;53.194;5.532;2023-07-20T03:43:02;3.78;;;1.65;;
51556;SDS011;38766;53.194;5.532;2023-07-20T03:45:28;4.00;;;1.60;;
51556;SDS011;38766;53.194;5.532;2023-07-20T03:47:53;2.20;;;1.50;;
51556;SDS011;38766;53.194;5.532;2023-07-20T03:50:19;3.33;;;1.60;;
51556;SDS011;38766;53.194;5.532;2023-07-20T03:52:45;2.35;;;1.67;;
51556;SDS011;38766;53.194;5.532;2023-07-20T03:55:10;2.17;;;1.92;;
51556;SDS011;38766;53.194;5.532;2023-07-20T03:57:36;2.05;;;1.50;;
51556;SDS011;38766;53.194;5.532;2023-07-20T04:00:02;2.17;;;1.95;;
51556;SDS011;38766;53.194;5.532;2023-07-20T04:02:31;2.53;;;2.13;;
51556;SDS011;38766;53.194;5.532;2023-07-20T04:04:57;4.65;;;1.95;;
51556;SDS011;38766;53.194;5.532;2023-07-20T04:07:23;4.10;;;2.20;;
51556;SDS011;38766;53.194;5.532;2023-07-20T04:09:48;3.45;;;2.10;;
51556;SDS011;38766;53.194;5.532;2023-07-20T04:12:14;2.47;;;1.75;;
51556;SDS011;38766;53.194;5.532;2023-07-20T04:14:39;6.35;;;2.28;;
51556;SDS011;38766;53.194;5.532;2023-07-20T04:17:05;4.55;;;2.15;;
51556;SDS011;38766;53.194;5.532;2023-07-20T04:19:31;2.72;;;1.80;;
51556;SDS011;38766;53.194;5.532;2023-07-20T04:21:56;4.53;;;1.77;;
51556;SDS011;38766;53.194;5.532;2023-07-20T04:24:22;3.80;;;1.77;;
51556;SDS011;38766;53.194;5.532;2023-07-20T04:26:48;3.72;;;1.50;;
51556;SDS011;38766;53.194;5.532;2023-07-20T04:29:13;4.22;;;1.90;;
51556;SDS011;38766;53.194;5.532;2023-07-20T04:31:39;3.63;;;1.95;;
51556;SDS011;38766;53.194;5.532;2023-07-20T04:34:04;4.40;;;1.80;;
51556;SDS011;38766;53.194;5.532;2023-07-20T04:36:30;2.70;;;1.70;;
51556;SDS011;38766;53.194;5.532;2023-07-20T04:38:56;3.03;;;1.85;;
51556;SDS011;38766;53.194;5.532;2023-07-20T04:41:21;3.40;;;1.60;;
51556;SDS011;38766;53.194;5.532;2023-07-20T04:43:47;3.72;;;1.77;;
51556;SDS011;38766;53.194;5.532;2023-07-20T04:46:13;2.50;;;1.60;;
51556;SDS011;38766;53.194;5.532;2023-07-20T04:48:38;2.22;;;1.67;;
51556;SDS011;38766;53.194;5.532;2023-07-20T04:51:05;3.05;;;1.48;;
51556;SDS011;38766;53.194;5.532;2023-07-20T04:53:31;2.97;;;1.60;;
51556;SDS011;38766;53.194;5.532;2023-07-20T04:55:57;5.47;;;1.60;;
51556;SDS011;38766;53.194;5.532;2023-07-20T04:58:22;4.78;;;1.60;;
51556;SDS011;38766;53.194;5.532;2023-07-20T05:00:49;1.52;;;1.33;;
51556;SDS011;38766;53.194;5.532;2023-07-20T05:03:15;2.22;;;1.40;;
51556;SDS011;38766;53.194;5.532;2023-07-20T05:05:40;6.15;;;1.50;;
51556;SDS011;38766;53.194;5.532;2023-07-20T05:08:06;1.98;;;1.67;;
51556;SDS011;38766;53.194;5.532;2023-07-20T05:10:32;2.67;;;1.75;;
51556;SDS011;38766;53.194;5.532;2023-07-20T05:13:00;4.50;;;1.70;;
51556;SDS011;38766;53.194;5.532;2023-07-20T05:15:25;1.60;;;1.50;;
51556;SDS011;38766;53.194;5.532;2023-07-20T05:17:51;2.03;;;1.30;;
51556;SDS011;38766;53.194;5.532;2023-07-20T05:20:17;5.13;;;1.90;;
51556;SDS011;38766;53.194;5.532;2023-07-20T05:22:43;3.17;;;1.67;;
51556;SDS011;38766;53.194;5.532;2023-07-20T05:25:09;1.67;;;1.40;;
51556;SDS011;38766;53.194;5.532;2023-07-20T05:27:36;3.10;;;1.85;;
51556;SDS011;38766;53.194;5.532;2023-07-20T05:30:03;2.80;;;1.55;;
51556;SDS011;38766;53.194;5.532;2023-07-20T05:32:32;3.90;;;2.10;;
51556;SDS011;38766;53.194;5.532;2023-07-20T05:34:58;3.05;;;1.95;;
51556;SDS011;38766;53.194;5.532;2023-07-20T05:37:24;3.45;;;1.90;;
51556;SDS011;38766;53.194;5.532;2023-07-20T05:39:50;2.10;;;1.80;;
51556;SDS011;38766;53.194;5.532;2023-07-20T05:42:16;6.20;;;1.80;;
51556;SDS011;38766;53.194;5.532;2023-07-20T05:44:41;3.55;;;1.65;;
51556;SDS011;38766;53.194;5.532;2023-07-20T05:47:07;2.00;;;1.58;;
51556;SDS011;38766;53.194;5.532;2023-07-20T05:49:34;1.73;;;1.30;;
51556;SDS011;38766;53.194;5.532;2023-07-20T05:51:59;3.38;;;1.35;;
51556;SDS011;38766;53.194;5.532;2023-07-20T05:54:26;3.30;;;1.40;;
51556;SDS011;38766;53.194;5.532;2023-07-20T05:56:52;2.38;;;1.33;;
51556;SDS011;38766;53.194;5.532;2023-07-20T05:59:18;3.05;;;1.38;;
51556;SDS011;38766;53.194;5.532;2023-07-20T06:01:44;2.85;;;1.27;;
51556;SDS011;38766;53.194;5.532;2023-07-20T06:04:10;1.48;;;1.20;;
51556;SDS011;38766;53.194;5.532;2023-07-20T06:06:36;3.38;;;1.40;;
51556;SDS011;38766;53.194;5.532;2023-07-20T06:09:02;2.00;;;1.33;;
51556;SDS011;38766;53.194;5.532;2023-07-20T06:11:34;2.20;;;1.30;;
51556;SDS011;38766;53.194;5.532;2023-07-20T06:14:01;2.85;;;1.40;;
51556;SDS011;38766;53.194;5.532;2023-07-20T06:16:26;3.72;;;1.30;;
51556;SDS011;38766;53.194;5.532;2023-07-20T06:18:52;2.10;;;1.05;;
51556;SDS011;38766;53.194;5.532;2023-07-20T06:21:18;3.25;;;1.05;;
51556;SDS011;38766;53.194;5.532;2023-07-20T06:23:43;1.70;;;1.30;;
51556;SDS011;38766;53.194;5.532;2023-07-20T06:26:09;5.20;;;1.83;;
51556;SDS011;38766;53.194;5.532;2023-07-20T06:28:35;4.60;;;1.50;;
51556;SDS011;38766;53.194;5.532;2023-07-20T06:31:04;3.13;;;1.60;;
51556;SDS011;38766;53.194;5.532;2023-07-20T06:33:29;4.22;;;1.60;;
51556;SDS011;38766;53.194;5.532;2023-07-20T06:35:55;4.22;;;1.83;;
51556;SDS011;38766;53.194;5.532;2023-07-20T06:38:24;3.80;;;1.70;;
51556;SDS011;38766;53.194;5.532;2023-07-20T06:40:50;4.53;;;1.92;;
51556;SDS011;38766;53.194;5.532;2023-07-20T06:43:16;3.90;;;1.80;;
51556;SDS011;38766;53.194;5.532;2023-07-20T06:45:42;2.53;;;1.77;;
51556;SDS011;38766;53.194;5.532;2023-07-20T06:48:08;4.60;;;1.90;;
51556;SDS011;38766;53.194;5.532;2023-07-20T06:50:34;2.70;;;1.65;;
51556;SDS011;38766;53.194;5.532;2023-07-20T06:53:00;3.58;;;1.90;;
51556;SDS011;38766;53.194;5.532;2023-07-20T06:55:28;4.95;;;2.10;;
51556;SDS011;38766;53.194;5.532;2023-07-20T06:57:54;2.15;;;1.63;;
51556;SDS011;38766;53.194;5.532;2023-07-20T07:00:19;2.55;;;1.80;;
51556;SDS011;38766;53.194;5.532;2023-07-20T07:02:45;2.97;;;2.00;;
51556;SDS011;38766;53.194;5.532;2023-07-20T07:05:11;4.22;;;1.95;;
51556;SDS011;38766;53.194;5.532;2023-07-20T07:07:38;2.85;;;1.75;;
51556;SDS011;38766;53.194;5.532;2023-07-20T07:10:04;4.18;;;2.58;;
51556;SDS011;38766;53.194;5.532;2023-07-20T07:12:30;3.35;;;2.00;;
51556;SDS011;38766;53.194;5.532;2023-07-20T07:14:56;3.00;;;1.95;;
51556;SDS011;38766;53.194;5.532;2023-07-20T07:17:22;4.22;;;2.30;;
51556;SDS011;38766;53.194;5.532;2023-07-20T07:19:47;3.17;;;1.95;;
51556;SDS011;38766;53.194;5.532;2023-07-20T07:22:13;6.07;;;2.10;;
51556;SDS011;38766;53.194;5.532;2023-07-20T07:24:39;3.45;;;2.38;;
51556;SDS011;38766;53.194;5.532;2023-07-20T07:27:07;3.42;;;2.22;;
51556;SDS011;38766;53.194;5.532;2023-07-20T07:29:34;3.95;;;2.60;;
51556;SDS011;38766;53.194;5.532;2023-07-20T07:31:59;4.90;;;2.33;;
51556;SDS011;38766;53.194;5.532;2023-07-20T07:34:26;3.78;;;2.00;;
51556;SDS011;38766;53.194;5.532;2023-07-20T07:36:52;3.75;;;2.00;;
51556;SDS011;38766;53.194;5.532;2023-07-20T07:39:18;3.80;;;2.33;;
51556;SDS011;38766;53.194;5.532;2023-07-20T07:41:44;4.03;;;2.33;;
51556;SDS011;38766;53.194;5.532;2023-07-20T07:44:10;6.10;;;2.40;;
51556;SDS011;38766;53.194;5.532;2023-07-20T07:46:36;4.82;;;2.30;;
51556;SDS011;38766;53.194;5.532;2023-07-20T07:49:01;4.57;;;2.17;;
51556;SDS011;38766;53.194;5.532;2023-07-20T07:51:27;5.78;;;2.45;;
51556;SDS011;38766;53.194;5.532;2023-07-20T07:53:53;4.00;;;2.10;;
51556;SDS011;38766;53.194;5.532;2023-07-20T07:56:19;4.55;;;2.30;;
51556;SDS011;38766;53.194;5.532;2023-07-20T07:58:51;3.33;;;2.33;;
51556;SDS011;38766;53.194;5.532;2023-07-20T08:01:17;3.20;;;2.25;;
51556;SDS011;38766;53.194;5.532;2023-07-20T08:03:44;3.20;;;2.05;;
51556;SDS011;38766;53.194;5.532;2023-07-20T08:06:12;5.10;;;2.25;;
51556;SDS011;38766;53.194;5.532;2023-07-20T08:08:38;4.75;;;2.50;;
51556;SDS011;38766;53.194;5.532;2023-07-20T08:11:04;3.40;;;2.20;;
51556;SDS011;38766;53.194;5.532;2023-07-20T08:13:30;5.05;;;1.85;;
51556;SDS011;38766;53.194;5.532;2023-07-20T08:15:57;2.13;;;2.00;;
51556;SDS011;38766;53.194;5.532;2023-07-20T08:18:22;4.00;;;2.30;;
51556;SDS011;38766;53.194;5.532;2023-07-20T08:20:48;2.72;;;2.10;;
51556;SDS011;38766;53.194;5.532;2023-07-20T08:23:14;4.90;;;2.28;;
51556;SDS011;38766;53.194;5.532;2023-07-20T08:25:40;6.70;;;2.60;;
51556;SDS011;38766;53.194;5.532;2023-07-20T08:28:18;8.13;;;2.47;;
51556;SDS011;38766;53.194;5.532;2023-07-20T08:30:45;4.72;;;2.50;;
51556;SDS011;38766;53.194;5.532;2023-07-20T08:33:13;6.15;;;2.63;;
51556;SDS011;38766;53.194;5.532;2023-07-20T08:35:40;3.45;;;2.25;;
51556;SDS011;38766;53.194;5.532;2023-07-20T08:38:06;5.05;;;2.35;;
51556;SDS011;38766;53.194;5.532;2023-07-20T08:40:33;5.65;;;2.55;;
51556;SDS011;38766;53.194;5.532;2023-07-20T08:43:03;4.78;;;2.67;;
51556;SDS011;38766;53.194;5.532;2023-07-20T08:45:29;6.35;;;2.55;;
51556;SDS011;38766;53.194;5.532;2023-07-20T08:47:58;4.53;;;2.55;;
51556;SDS011;38766;53.194;5.532;2023-07-20T08:50:29;5.65;;;2.40;;
51556;SDS011;38766;53.194;5.532;2023-07-20T08:52:57;4.63;;;2.60;;
51556;SDS011;38766;53.194;5.532;2023-07-20T08:55:24;3.15;;;2.25;;
51556;SDS011;38766;53.194;5.532;2023-07-20T08:57:55;4.40;;;2.13;;
51556;SDS011;38766;53.194;5.532;2023-07-20T09:00:22;5.07;;;2.33;;
51556;SDS011;38766;53.194;5.532;2023-07-20T09:02:49;3.15;;;2.35;;
51556;SDS011;38766;53.194;5.532;2023-07-20T09:05:16;3.42;;;2.15;;
51556;SDS011;38766;53.194;5.532;2023-07-20T09:07:46;4.90;;;1.98;;
51556;SDS011;38766;53.194;5.532;2023-07-20T09:10:12;5.72;;;1.90;;
51556;SDS011;38766;53.194;5.532;2023-07-20T09:12:39;5.93;;;2.15;;
51556;SDS011;38766;53.194;5.532;2023-07-20T09:15:07;4.53;;;2.10;;
51556;SDS011;38766;53.194;5.532;2023-07-20T09:17:34;5.22;;;1.98;;
51556;SDS011;38766;53.194;5.532;2023-07-20T09:20:06;3.75;;;2.10;;
51556;SDS011;38766;53.194;5.532;2023-07-20T09:22:38;3.65;;;1.85;;
51556;SDS011;38766;53.194;5.532;2023-07-20T09:25:13;6.30;;;1.90;;
51556;SDS011;38766;53.194;5.532;2023-07-20T09:27:42;5.35;;;2.88;;
51556;SDS011;38766;53.194;5.532;2023-07-20T09:30:09;4.38;;;2.33;;
51556;SDS011;38766;53.194;5.532;2023-07-20T09:32:48;2.88;;;1.80;;
51556;SDS011;38766;53.194;5.532;2023-07-20T09:35:16;2.80;;;1.90;;
51556;SDS011;38766;53.194;5.532;2023-07-20T09:40:20;3.35;;;1.90;;
51556;SDS011;38766;53.194;5.532;2023-07-20T09:42:46;3.85;;;2.00;;
51556;SDS011;38766;53.194;5.532;2023-07-20T09:45:12;2.90;;;2.20;;
51556;SDS011;38766;53.194;5.532;2023-07-20T09:47:38;2.58;;;2.08;;
51556;SDS011;38766;53.194;5.532;2023-07-20T09:50:05;7.10;;;2.30;;
51556;SDS011;38766;53.194;5.532;2023-07-20T09:52:38;5.70;;;2.42;;
51556;SDS011;38766;53.194;5.532;2023-07-20T09:55:09;4.93;;;2.00;;
51556;SDS011;38766;53.194;5.532;2023-07-20T09:57:37;4.80;;;1.90;;
51556;SDS011;38766;53.194;5.532;2023-07-20T10:00:06;3.45;;;2.05;;
51556;SDS011;38766;53.194;5.532;2023-07-20T10:02:41;4.57;;;2.00;;
51556;SDS011;38766;53.194;5.532;2023-07-20T10:05:14;4.07;;;2.20;;
51556;SDS011;38766;53.194;5.532;2023-07-20T10:07:47;8.60;;;4.85;;
51556;SDS011;38766;53.194;5.532;2023-07-20T10:10:15;5.88;;;2.10;;
51556;SDS011;38766;53.194;5.532;2023-07-20T10:12:46;6.55;;;2.00;;
51556;SDS011;38766;53.194;5.532;2023-07-20T10:15:19;2.53;;;1.73;;
51556;SDS011;38766;53.194;5.532;2023-07-20T10:17:58;3.17;;;2.05;;
51556;SDS011;38766;53.194;5.532;2023-07-20T10:20:29;2.85;;;1.40;;
51556;SDS011;38766;53.194;5.532;2023-07-20T10:22:57;2.72;;;1.50;;
51556;SDS011;38766;53.194;5.532;2023-07-20T10:25:23;2.33;;;1.77;;
51556;SDS011;38766;53.194;5.532;2023-07-20T10:27:49;5.90;;;1.92;;
51556;SDS011;38766;53.194;5.532;2023-07-20T10:30:15;2.95;;;1.92;;
51556;SDS011;38766;53.194;5.532;2023-07-20T10:32:42;5.50;;;1.67;;
51556;SDS011;38766;53.194;5.532;2023-07-20T10:35:13;4.50;;;1.83;;
51556;SDS011;38766;53.194;5.532;2023-07-20T10:43:16;3.60;;;1.67;;
51556;SDS011;38766;53.194;5.532;2023-07-20T10:45:51;2.88;;;1.80;;
51556;SDS011;38766;53.194;5.532;2023-07-20T10:48:18;2.90;;;1.87;;
51556;SDS011;38766;53.194;5.532;2023-07-20T10:50:46;2.33;;;1.70;;
51556;SDS011;38766;53.194;5.532;2023-07-20T10:53:34;5.00;;;1.98;;
51556;SDS011;38766;53.194;5.532;2023-07-20T10:56:11;3.15;;;2.00;;
51556;SDS011;38766;53.194;5.532;2023-07-20T10:58:39;3.33;;;1.80;;
51556;SDS011;38766;53.194;5.532;2023-07-20T11:01:06;2.15;;;1.83;;
51556;SDS011;38766;53.194;5.532;2023-07-20T11:03:36;4.07;;;1.80;;
51556;SDS011;38766;53.194;5.532;2023-07-20T11:11:30;5.47;;;1.85;;
51556;SDS011;38766;53.194;5.532;2023-07-20T11:14:02;2.60;;;1.92;;
51556;SDS011;38766;53.194;5.532;2023-07-20T11:16:36;5.28;;;1.80;;
51556;SDS011;38766;53.194;5.532;2023-07-20T11:24:09;3.42;;;2.00;;
51556;SDS011;38766;53.194;5.532;2023-07-20T11:26:49;3.65;;;1.80;;
51556;SDS011;38766;53.194;5.532;2023-07-20T11:29:20;5.28;;;1.77;;
51556;SDS011;38766;53.194;5.532;2023-07-20T11:31:48;8.75;;;2.15;;
51556;SDS011;38766;53.194;5.532;2023-07-20T11:34:15;4.63;;;1.90;;
51556;SDS011;38766;53.194;5.532;2023-07-20T11:36:43;3.72;;;2.05;;
51556;SDS011;38766;53.194;5.532;2023-07-20T11:39:10;3.00;;;1.88;;
51556;SDS011;38766;53.194;5.532;2023-07-20T11:41:38;4.13;;;1.88;;
51556;SDS011;38766;53.194;5.532;2023-07-20T11:44:09;2.80;;;1.65;;
51556;SDS011;38766;53.194;5.532;2023-07-20T11:46:41;2.70;;;1.88;;
51556;SDS011;38766;53.194;5.532;2023-07-20T11:49:07;2.47;;;1.70;;
51556;SDS011;38766;53.194;5.532;2023-07-20T11:51:33;3.00;;;1.67;;
51556;SDS011;38766;53.194;5.532;2023-07-20T11:54:01;3.00;;;1.63;;
51556;SDS011;38766;53.194;5.532;2023-07-20T11:56:27;2.55;;;1.75;;
51556;SDS011;38766;53.194;5.532;2023-07-20T11:58:57;4.13;;;1.55;;
51556;SDS011;38766;53.194;5.532;2023-07-20T12:01:28;1.77;;;1.60;;
51556;SDS011;38766;53.194;5.532;2023-07-20T12:03:56;4.05;;;1.92;;
51556;SDS011;38766;53.194;5.532;2023-07-20T12:06:24;2.85;;;1.50;;
51556;SDS011;38766;53.194;5.532;2023-07-20T12:08:50;2.15;;;1.75;;
51556;SDS011;38766;53.194;5.532;2023-07-20T12:11:32;2.05;;;1.70;;
51556;SDS011;38766;53.194;5.532;2023-07-20T12:13:58;1.75;;;1.35;;
51556;SDS011;38766;53.194;5.532;2023-07-20T12:16:28;1.55;;;1.45;;
51556;SDS011;38766;53.194;5.532;2023-07-20T12:19:01;2.75;;;1.60;;
51556;SDS011;38766;53.194;5.532;2023-07-20T12:21:31;4.63;;;1.60;;
51556;SDS011;38766;53.194;5.532;2023-07-20T12:23:59;1.95;;;1.70;;
51556;SDS011;38766;53.194;5.532;2023-07-20T12:26:25;2.08;;;1.88;;
51556;SDS011;38766;53.194;5.532;2023-07-20T12:28:53;2.08;;;1.75;;
51556;SDS011;38766;53.194;5.532;2023-07-20T12:31:19;5.05;;;3.00;;
51556;SDS011;38766;53.194;5.532;2023-07-20T12:33:46;5.50;;;1.95;;
51556;SDS011;38766;53.194;5.532;2023-07-20T12:36:11;2.28;;;1.60;;
51556;SDS011;38766;53.194;5.532;2023-07-20T12:38:37;2.47;;;1.73;;
51556;SDS011;38766;53.194;5.532;2023-07-20T12:41:03;2.75;;;1.90;;
51556;SDS011;38766;53.194;5.532;2023-07-20T12:43:29;2.28;;;1.90;;
51556;SDS011;38766;53.194;5.532;2023-07-20T12:45:55;3.47;;;1.92;;
51556;SDS011;38766;53.194;5.532;2023-07-20T12:48:21;3.15;;;1.80;;
51556;SDS011;38766;53.194;5.532;2023-07-20T12:50:47;4.45;;;1.75;;
51556;SDS011;38766;53.194;5.532;2023-07-20T12:53:13;2.53;;;1.90;;
51556;SDS011;38766;53.194;5.532;2023-07-20T12:55:39;3.70;;;1.70;;
51556;SDS011;38766;53.194;5.532;2023-07-20T12:58:06;4.80;;;1.80;;
51556;SDS011;38766;53.194;5.532;2023-07-20T13:00:32;2.58;;;1.70;;
51556;SDS011;38766;53.194;5.532;2023-07-20T13:02:58;3.13;;;1.80;;
51556;SDS011;38766;53.194;5.532;2023-07-20T13:05:27;3.17;;;1.98;;
51556;SDS011;38766;53.194;5.532;2023-07-20T13:07:52;4.20;;;1.73;;
51556;SDS011;38766;53.194;5.532;2023-07-20T13:10:18;3.63;;;1.55;;
51556;SDS011;38766;53.194;5.532;2023-07-20T13:12:44;2.97;;;1.70;;
51556;SDS011;38766;53.194;5.532;2023-07-20T13:15:10;2.40;;;1.60;;
51556;SDS011;38766;53.194;5.532;2023-07-20T13:17:36;2.55;;;1.73;;
51556;SDS011;38766;53.194;5.532;2023-07-20T13:20:06;1.88;;;1.70;;
51556;SDS011;38766;53.194;5.532;2023-07-20T13:22:36;2.50;;;1.60;;
51556;SDS011;38766;53.194;5.532;2023-07-20T13:25:02;3.20;;;1.52;;
51556;SDS011;38766;53.194;5.532;2023-07-20T13:27:28;2.05;;;1.77;;
51556;SDS011;38766;53.194;5.532;2023-07-20T13:29:55;2.47;;;1.85;;
51556;SDS011;38766;53.194;5.532;2023-07-20T13:32:21;1.88;;;1.77;;
51556;SDS011;38766;53.194;5.532;2023-07-20T13:34:47;2.75;;;1.70;;
51556;SDS011;38766;53.194;5.532;2023-07-20T13:37:13;2.53;;;1.70;;
51556;SDS011;38766;53.194;5.532;2023-07-20T13:39:39;3.00;;;2.33;;
51556;SDS011;38766;53.194;5.532;2023-07-20T13:42:05;1.95;;;1.38;;
51556;SDS011;38766;53.194;5.532;2023-07-20T13:44:31;2.42;;;1.45;;
51556;SDS011;38766;53.194;5.532;2023-07-20T13:46:57;3.67;;;1.80;;
51556;SDS011;38766;53.194;5.532;2023-07-20T13:49:23;2.65;;;1.70;;
51556;SDS011;38766;53.194;5.532;2023-07-20T13:51:49;2.17;;;1.77;;
51556;SDS011;38766;53.194;5.532;2023-07-20T13:54:15;1.90;;;1.70;;
51556;SDS011;38766;53.194;5.532;2023-07-20T13:56:40;2.60;;;1.92;;
51556;SDS011;38766;53.194;5.532;2023-07-20T13:59:06;2.67;;;1.80;;
51556;SDS011;38766;53.194;5.532;2023-07-20T14:01:32;2.80;;;1.50;;
51556;SDS011;38766;53.194;5.532;2023-07-20T14:03:59;2.45;;;1.70;;
51556;SDS011;38766;53.194;5.532;2023-07-20T14:06:25;3.78;;;1.73;;
51556;SDS011;38766;53.194;5.532;2023-07-20T14:08:51;4.93;;;1.95;;
51556;SDS011;38766;53.194;5.532;2023-07-20T14:11:18;3.30;;;1.67;;
51556;SDS011;38766;53.194;5.532;2023-07-20T14:13:44;2.92;;;1.80;;
51556;SDS011;38766;53.194;5.532;2023-07-20T14:16:09;4.65;;;2.33;;
51556;SDS011;38766;53.194;5.532;2023-07-20T14:18:35;3.85;;;2.10;;
51556;SDS011;38766;53.194;5.532;2023-07-20T14:21:01;2.65;;;2.03;;
51556;SDS011;38766;53.194;5.532;2023-07-20T14:23:28;3.05;;;2.10;;
51556;SDS011;38766;53.194;5.532;2023-07-20T14:25:54;2.65;;;1.70;;
51556;SDS011;38766;53.194;5.532;2023-07-20T14:28:20;2.00;;;1.77;;
51556;SDS011;38766;53.194;5.532;2023-07-20T14:30:46;1.70;;;1.60;;
51556;SDS011;38766;53.194;5.532;2023-07-20T14:33:12;2.22;;;1.48;;
51556;SDS011;38766;53.194;5.532;2023-07-20T14:35:37;2.28;;;1.63;;
51556;SDS011;38766;53.194;5.532;2023-07-20T14:38:03;5.82;;;1.67;;
51556;SDS011;38766;53.194;5.532;2023-07-20T14:40:29;3.67;;;1.80;;
51556;SDS011;38766;53.194;5.532;2023-07-20T14:42:57;3.40;;;1.65;;
51556;SDS011;38766;53.194;5.532;2023-07-20T14:45:26;1.95;;;1.70;;
51556;SDS011;38766;53.194;5.532;2023-07-20T14:47:54;4.60;;;1.90;;
51556;SDS011;38766;53.194;5.532;2023-07-20T14:50:20;2.15;;;1.80;;
51556;SDS011;38766;53.194;5.532;2023-07-20T14:52:46;2.58;;;1.25;;
51556;SDS011;38766;53.194;5.532;2023-07-20T14:55:12;1.65;;;1.55;;
51556;SDS011;38766;53.194;5.532;2023-07-20T14:57:38;2.40;;;1.55;;
51556;SDS011;38766;53.194;5.532;2023-07-20T15:00:04;1.70;;;1.60;;
51556;SDS011;38766;53.194;5.532;2023-07-20T15:02:38;2.38;;;1.63;;
51556;SDS011;38766;53.194;5.532;2023-07-20T15:05:06;3.50;;;1.52;;
51556;SDS011;38766;53.194;5.532;2023-07-20T15:07:33;4.85;;;1.88;;
51556;SDS011;38766;53.194;5.532;2023-07-20T15:09:59;2.50;;;1.50;;
51556;SDS011;38766;53.194;5.532;2023-07-20T15:12:25;1.73;;;1.30;;
51556;SDS011;38766;53.194;5.532;2023-07-20T15:15:02;3.30;;;1.70;;